Time;durP1;ratioP1;P1;durP2;ratioP2;P2;SDS_P1;SDS_P2;PMS_P1;PMS_P2;Temp;Humidity;BMP_temperature;BMP_pressure;BME280_temperature;BME280_humidity;BME280_pressure;Samples;Min_cycle;Max_cycle;Signal;HPM_P1;HPM_P2
2022/03/09 00:02:03;;;;;;;4.75;4.40;;;;;;;;;;4857809;29;20056;-87
2022/03/09 00:04:33;;;;;;;9.00;4.78;;;;;;;;;;4857913;29;20064;-87
2022/03/09 00:07:01;;;;;;;5.65;4.75;;;;;;;;;;4858548;29;20057;-87
2022/03/09 00:09:29;;;;;;;9.07;4.68;;;;;;;;;;4841095;29;20049;-87
2022/03/09 00:11:57;;;;;;;7.65;4.45;;;;;;;;;;4812365;29;20079;-86
2022/03/09 00:14:26;;;;;;;6.03;5.45;;;;;;;;;;4808121;29;20064;-87
2022/03/09 00:16:54;;;;;;;2.92;2.72;;;;;;;;;;4839390;29;20049;-87
2022/03/09 00:19:22;;;;;;;7.28;5.45;;;;;;;;;;4839773;29;20054;-87
2022/03/09 00:21:50;;;;;;;6.20;5.65;;;;;;;;;;4839317;29;20050;-87
2022/03/09 00:24:19;;;;;;;5.82;5.47;;;;;;;;;;4822719;29;20081;-87
2022/03/09 00:26:47;;;;;;;7.63;5.38;;;;;;;;;;4839190;29;20077;-87
2022/03/09 00:29:17;;;;;;;4.68;3.63;;;;;;;;;;4839136;29;20046;-87
2022/03/09 00:31:45;;;;;;;3.22;2.92;;;;;;;;;;4839010;29;20077;-86
2022/03/09 00:34:15;;;;;;;6.18;4.35;;;;;;;;;;4839609;29;20053;-87
2022/03/09 00:36:43;;;;;;;13.70;5.82;;;;;;;;;;4822274;29;20982;-86
2022/03/09 00:39:12;;;;;;;8.48;6.55;;;;;;;;;;4839151;29;20488;-87
2022/03/09 00:41:40;;;;;;;6.40;5.90;;;;;;;;;;4821698;29;20068;-86
2022/03/09 00:44:08;;;;;;;6.75;5.22;;;;;;;;;;4838882;29;20046;-86
2022/03/09 00:46:36;;;;;;;10.95;5.10;;;;;;;;;;4825074;29;20489;-87
2022/03/09 00:49:04;;;;;;;9.45;4.25;;;;;;;;;;4821751;29;20049;-87
2022/03/09 00:51:32;;;;;;;7.60;5.65;;;;;;;;;;4838953;29;20069;-87
2022/03/09 00:54:00;;;;;;;7.10;4.78;;;;;;;;;;4843755;29;20053;-87
2022/03/09 00:56:28;;;;;;;6.32;5.07;;;;;;;;;;4856744;29;20049;-87
2022/03/09 00:58:56;;;;;;;7.90;5.03;;;;;;;;;;4857000;29;20785;-87
2022/03/09 01:01:24;;;;;;;5.78;4.82;;;;;;;;;;4856860;29;20050;-87
2022/03/09 01:03:52;;;;;;;8.40;5.63;;;;;;;;;;4857196;29;20057;-86
2022/03/09 01:06:20;;;;;;;6.28;5.68;;;;;;;;;;4840527;29;20053;-86
2022/03/09 01:08:49;;;;;;;5.93;4.85;;;;;;;;;;4839612;29;20057;-86
2022/03/09 01:11:20;;;;;;;5.95;5.45;;;;;;;;;;4852295;29;20045;-86
2022/03/09 01:13:48;;;;;;;5.95;5.45;;;;;;;;;;4840060;29;20057;-86
2022/03/09 01:16:32;;;;;;;9.27;5.75;;;;;;;;;;4856821;29;20041;-86
2022/03/09 01:19:46;;;;;;;6.28;3.80;;;;;;;;;;4857183;29;20054;-86
2022/03/09 01:23:07;;;;;;;6.45;4.78;;;;;;;;;;4822050;29;20053;-86
2022/03/09 01:26:20;;;;;;;;;;;;;;;;;;4856238;29;20049;-86
2022/03/09 01:29:24;;;;;;;3.78;3.47;;;;;;;;;;4856571;29;19928;-86
2022/03/09 01:31:52;;;;;;;5.75;4.05;;;;;;;;;;4856577;29;20050;-86
2022/03/09 01:34:20;;;;;;;7.30;4.20;;;;;;;;;;4857045;29;20061;-86
2022/03/09 01:36:50;;;;;;;6.00;4.22;;;;;;;;;;4855963;29;20053;-86
2022/03/09 01:39:20;;;;;;;5.20;4.70;;;;;;;;;;4839860;29;20053;-86
2022/03/09 01:41:51;;;;;;;5.05;4.45;;;;;;;;;;4824781;29;20061;-85
2022/03/09 01:44:21;;;;;;;8.48;5.25;;;;;;;;;;4856298;29;20062;-86
2022/03/09 01:46:51;;;;;;;4.60;4.20;;;;;;;;;;4850282;29;20498;-85
2022/03/09 01:49:19;;;;;;;8.35;4.60;;;;;;;;;;4850926;29;20057;-86
2022/03/09 01:51:48;;;;;;;4.75;4.30;;;;;;;;;;4837224;29;20061;-85
2022/03/09 01:54:16;;;;;;;9.23;5.07;;;;;;;;;;4837751;29;20064;-86
2022/03/09 01:56:44;;;;;;;6.40;5.13;;;;;;;;;;4837388;29;20046;-85
2022/03/09 01:59:17;;;;;;;7.68;4.32;;;;;;;;;;4838286;29;20085;-86
2022/03/09 02:01:45;;;;;;;;;;;;;;;;;;4838015;29;20523;-85
2022/03/09 02:04:13;;;;;;;4.40;4.05;;;;;;;;;;4837483;29;20383;-85
2022/03/09 02:06:41;;;;;;;8.65;5.45;;;;;;;;;;4837285;29;20050;-85
2022/03/09 02:11:57;;;;;;;4.85;3.78;;;;;;;;;;4834082;29;20049;-85
2022/03/09 02:14:44;;;;;;;9.27;5.63;;;;;;;;;;4854816;29;20053;-85
2022/03/09 02:17:21;;;;;;;7.25;4.65;;;;;;;;;;4855438;29;20053;-85
2022/03/09 02:19:50;;;;;;;6.30;4.53;;;;;;;;;;4839085;29;20050;-85
2022/03/09 02:22:33;;;;;;;6.90;4.82;;;;;;;;;;4837278;29;20409;-85
2022/03/09 02:25:24;;;;;;;3.85;3.45;;;;;;;;;;4838523;29;20042;-81
2022/03/09 02:27:53;;;;;;;5.25;3.65;;;;;;;;;;4838187;29;20053;-85
2022/03/09 02:30:25;;;;;;;10.52;4.22;;;;;;;;;;4854362;29;20045;-85
2022/03/09 02:32:53;;;;;;;10.30;4.78;;;;;;;;;;4855234;29;20424;-85
2022/03/09 02:35:21;;;;;;;4.40;4.13;;;;;;;;;;4855223;29;20058;-85
2022/03/09 02:37:49;;;;;;;5.80;5.10;;;;;;;;;;4852960;29;20048;-85
2022/03/09 02:40:17;;;;;;;8.05;5.55;;;;;;;;;;4854612;29;20061;-84
2022/03/09 02:42:45;;;;;;;7.70;5.72;;;;;;;;;;4855890;29;20686;-84
2022/03/09 02:45:13;;;;;;;9.32;4.93;;;;;;;;;;4853874;29;20503;-84
2022/03/09 02:47:42;;;;;;;9.38;5.38;;;;;;;;;;4854821;29;20056;-79
2022/03/09 02:50:15;;;;;;;6.43;5.78;;;;;;;;;;4842930;29;20060;-85
2022/03/09 02:52:45;;;;;;;8.23;6.13;;;;;;;;;;4836488;29;20057;-84
2022/03/09 02:55:13;;;;;;;5.95;5.38;;;;;;;;;;4820496;29;20065;-84
2022/03/09 02:57:42;;;;;;;5.47;4.97;;;;;;;;;;4843382;29;20050;-84
2022/03/09 03:00:13;;;;;;;9.77;5.55;;;;;;;;;;4835325;29;20046;-84
2022/03/09 03:02:43;;;;;;;5.45;4.95;;;;;;;;;;4820766;29;20058;-84
2022/03/09 03:05:12;;;;;;;6.90;6.28;;;;;;;;;;4836292;29;20062;-84
2022/03/09 03:07:41;;;;;;;7.63;5.70;;;;;;;;;;4835274;29;20050;-83
2022/03/09 03:10:09;;;;;;;7.75;6.13;;;;;;;;;;4819260;29;20064;-84
2022/03/09 03:12:37;;;;;;;7.20;4.43;;;;;;;;;;4834860;29;20046;-84
2022/03/09 03:15:06;;;;;;;5.30;4.80;;;;;;;;;;4820425;29;20062;-84
2022/03/09 03:17:37;;;;;;;6.82;5.13;;;;;;;;;;4819622;29;20062;-84
2022/03/09 03:20:05;;;;;;;;;;;;;;;;;;4836544;29;20058;-84
2022/03/09 03:22:33;;;;;;;8.98;4.55;;;;;;;;;;4835287;29;19929;-83
2022/03/09 03:25:01;;;;;;;8.85;5.65;;;;;;;;;;4835951;29;20053;-84
2022/03/09 03:27:29;;;;;;;5.13;4.18;;;;;;;;;;4836720;29;20061;-83
2022/03/09 03:29:57;;;;;;;7.22;4.93;;;;;;;;;;4835859;29;20065;-83
2022/03/09 03:32:25;;;;;;;4.95;4.43;;;;;;;;;;4835836;29;20054;-83
2022/03/09 03:34:53;;;;;;;11.52;4.53;;;;;;;;;;4838075;29;20703;-83
2022/03/09 03:37:21;;;;;;;4.43;3.97;;;;;;;;;;4839815;29;20046;-83
2022/03/09 03:39:49;;;;;;;4.45;4.05;;;;;;;;;;4839697;29;20548;-83
2022/03/09 03:42:17;;;;;;;6.18;5.72;;;;;;;;;;4840239;29;20062;-84
2022/03/09 03:44:45;;;;;;;6.60;4.97;;;;;;;;;;4808163;29;20061;-83
2022/03/09 03:47:13;;;;;;;8.45;5.35;;;;;;;;;;4853745;29;20057;-83
2022/03/09 03:49:41;;;;;;;5.03;3.95;;;;;;;;;;4849681;29;20088;-83
2022/03/09 03:52:10;;;;;;;6.88;4.38;;;;;;;;;;4823108;29;20049;-83
2022/03/09 03:54:38;;;;;;;5.43;4.82;;;;;;;;;;4840026;29;20057;-83
2022/03/09 03:57:06;;;;;;;6.55;5.70;;;;;;;;;;4839479;29;20057;-83
2022/03/09 03:59:34;;;;;;;4.82;4.35;;;;;;;;;;4839266;29;20066;-83
2022/03/09 04:02:02;;;;;;;8.40;4.22;;;;;;;;;;4839236;29;20058;-83
2022/03/09 04:04:31;;;;;;;4.30;3.90;;;;;;;;;;4822641;29;20583;-83
2022/03/09 04:07:02;;;;;;;6.07;4.63;;;;;;;;;;4823161;29;20041;-83
2022/03/09 04:09:30;;;;;;;16.50;5.47;;;;;;;;;;4838797;29;20409;-83
2022/03/09 04:11:58;;;;;;;7.78;4.85;;;;;;;;;;4822210;29;20053;-83
2022/03/09 04:14:27;;;;;;;9.18;5.10;;;;;;;;;;4839720;29;20057;-83
2022/03/09 04:16:54;;;;;;;8.07;5.32;;;;;;;;;;4822786;29;20543;-83
2022/03/09 04:19:23;;;;;;;7.85;6.43;;;;;;;;;;4839375;29;20061;-83
2022/03/09 04:21:51;;;;;;;11.05;6.90;;;;;;;;;;4837246;29;20057;-83
2022/03/09 04:24:20;;;;;;;4.63;4.10;;;;;;;;;;4839284;29;20408;-82
2022/03/09 04:26:48;;;;;;;12.15;6.30;;;;;;;;;;4839151;29;20057;-83
2022/03/09 04:29:16;;;;;;;9.50;5.85;;;;;;;;;;4838533;29;20452;-83
2022/03/09 04:31:44;;;;;;;7.75;4.80;;;;;;;;;;4839047;29;20054;-82
2022/03/09 04:34:12;;;;;;;5.40;4.88;;;;;;;;;;4838121;29;20057;-83
2022/03/09 04:36:40;;;;;;;6.88;4.95;;;;;;;;;;4838432;29;20061;-82
2022/03/09 04:39:09;;;;;;;7.18;5.50;;;;;;;;;;4839542;29;20503;-83
2022/03/09 04:41:37;;;;;;;5.93;5.25;;;;;;;;;;4838189;29;20054;-82
2022/03/09 04:44:05;;;;;;;9.30;5.22;;;;;;;;;;4838693;29;20050;-83
2022/03/09 04:46:33;;;;;;;10.23;6.22;;;;;;;;;;4840332;29;20050;-83
2022/03/09 04:49:02;;;;;;;6.13;5.47;;;;;;;;;;4854026;29;20053;-82
2022/03/09 04:51:31;;;;;;;6.75;5.32;;;;;;;;;;4838988;29;20061;-82
2022/03/09 04:54:02;;;;;;;6.05;5.28;;;;;;;;;;4838495;29;20045;-82
2022/03/09 04:56:30;;;;;;;7.55;6.85;;;;;;;;;;4838163;29;20078;-82
2022/03/09 04:58:58;;;;;;;7.45;5.60;;;;;;;;;;4838849;29;20386;-83
2022/03/09 05:01:26;;;;;;;10.57;6.30;;;;;;;;;;4838101;29;20050;-83
2022/03/09 05:03:54;;;;;;;10.60;9.07;;;;;;;;;;4843982;29;21063;-83
2022/03/09 05:06:22;;;;;;;10.02;5.32;;;;;;;;;;4857134;29;20427;-83
2022/03/09 05:08:50;;;;;;;8.23;5.57;;;;;;;;;;4839696;29;20053;-83
2022/03/09 05:11:18;;;;;;;11.57;6.15;;;;;;;;;;4850178;29;20061;-83
2022/03/09 05:13:46;;;;;;;6.25;5.03;;;;;;;;;;4839130;29;20073;-83
2022/03/09 05:16:14;;;;;;;10.98;8.07;;;;;;;;;;4839157;29;20048;-83
2022/03/09 05:18:43;;;;;;;7.95;6.07;;;;;;;;;;4840714;29;20057;-83
2022/03/09 05:21:11;;;;;;;12.20;6.72;;;;;;;;;;4840060;29;20056;-82
2022/03/09 05:23:40;;;;;;;8.40;6.40;;;;;;;;;;4857330;29;20068;-84
2022/03/09 05:26:08;;;;;;;6.70;5.38;;;;;;;;;;4846629;29;20042;-82
2022/03/09 05:28:39;;;;;;;15.27;6.53;;;;;;;;;;4855482;29;20420;-82
2022/03/09 05:31:07;;;;;;;7.63;5.63;;;;;;;;;;4856493;29;20053;-82
2022/03/09 05:33:35;;;;;;;6.65;6.05;;;;;;;;;;4856398;29;20045;-81
2022/03/09 05:36:03;;;;;;;15.20;7.40;;;;;;;;;;4854908;29;20045;-81
2022/03/09 05:38:31;;;;;;;6.97;6.30;;;;;;;;;;4841448;29;20056;-79
2022/03/09 05:40:59;;;;;;;10.20;7.38;;;;;;;;;;4838893;29;20064;-81
2022/03/09 05:43:27;;;;;;;16.27;7.85;;;;;;;;;;4855841;29;20503;-82
2022/03/09 05:45:55;;;;;;;10.52;7.53;;;;;;;;;;4850945;29;20053;-83
2022/03/09 05:48:24;;;;;;;8.65;7.28;;;;;;;;;;4839361;29;20054;-83
2022/03/09 05:50:52;;;;;;;9.15;6.70;;;;;;;;;;4841096;29;20053;-83
2022/03/09 05:53:20;;;;;;;11.55;7.03;;;;;;;;;;4860118;29;20057;-82
2022/03/09 05:55:48;;;;;;;13.70;10.32;;;;;;;;;;4873534;29;20064;-84
2022/03/09 05:58:16;;;;;;;10.02;8.10;;;;;;;;;;4856088;29;20514;-82
2022/03/09 06:00:46;;;;;;;8.07;7.10;;;;;;;;;;4855773;29;20053;-83
2022/03/09 06:03:15;;;;;;;8.48;6.07;;;;;;;;;;4839870;29;20514;-84
2022/03/09 06:05:43;;;;;;;9.23;5.90;;;;;;;;;;4855962;29;20056;-85
2022/03/09 06:08:12;;;;;;;11.10;5.53;;;;;;;;;;4838788;29;20544;-84
2022/03/09 06:10:46;;;;;;;5.72;5.05;;;;;;;;;;4855665;29;20072;-86
2022/03/09 06:13:16;;;;;;;10.35;6.28;;;;;;;;;;4855789;29;20050;-86
2022/03/09 06:15:44;;;;;;;12.60;8.35;;;;;;;;;;4855924;29;20053;-82
2022/03/09 06:18:12;;;;;;;13.52;7.82;;;;;;;;;;4852776;29;20050;-83
2022/03/09 06:20:47;;;;;;;10.00;7.93;;;;;;;;;;4855251;29;20558;-84
2022/03/09 06:23:15;;;;;;;10.15;6.63;;;;;;;;;;4856136;29;20056;-84
2022/03/09 06:25:43;;;;;;;9.30;8.40;;;;;;;;;;4855134;29;20061;-84
2022/03/09 06:28:11;;;;;;;15.90;9.15;;;;;;;;;;4855683;29;20057;-84
2022/03/09 06:30:39;;;;;;;12.75;7.20;;;;;;;;;;4858682;29;20056;-84
2022/03/09 06:33:07;;;;;;;11.02;6.57;;;;;;;;;;4855208;29;20068;-84
2022/03/09 06:35:35;;;;;;;8.45;6.05;;;;;;;;;;4855572;29;20073;-86
2022/03/09 06:38:03;;;;;;;8.77;7.10;;;;;;;;;;4855470;29;20053;-84
2022/03/09 06:40:31;;;;;;;6.20;5.20;;;;;;;;;;4854673;29;20054;-81
2022/03/09 06:42:59;;;;;;;9.82;6.30;;;;;;;;;;4839024;29;20057;-81
2022/03/09 06:45:28;;;;;;;15.70;9.48;;;;;;;;;;4839125;29;20053;-81
2022/03/09 06:47:56;;;;;;;17.60;6.80;;;;;;;;;;4820022;29;20049;-81
2022/03/09 06:50:24;;;;;;;9.48;6.40;;;;;;;;;;4850335;29;20046;-88
2022/03/09 06:52:52;;;;;;;12.13;7.03;;;;;;;;;;4823656;29;20415;-88
2022/03/09 06:55:20;;;;;;;10.35;6.25;;;;;;;;;;4823809;29;20057;-89
2022/03/09 06:57:49;;;;;;;11.30;7.65;;;;;;;;;;4823062;29;20050;-88
2022/03/09 07:00:19;;;;;;;12.95;6.57;;;;;;;;;;4838811;29;20084;-89
2022/03/09 07:02:47;;;;;;;10.48;7.07;;;;;;;;;;4839265;29;20057;-88
2022/03/09 07:05:16;;;;;;;6.03;5.32;;;;;;;;;;4838146;29;20053;-88
2022/03/09 07:07:44;;;;;;;14.02;7.43;;;;;;;;;;4838788;29;20053;-87
2022/03/09 07:10:13;;;;;;;11.07;6.07;;;;;;;;;;4837867;29;20053;-87
2022/03/09 07:12:43;;;;;;;12.73;7.10;;;;;;;;;;4853027;29;20049;-87
2022/03/09 07:15:12;;;;;;;10.98;8.35;;;;;;;;;;4850351;29;20878;-85
2022/03/09 07:17:40;;;;;;;11.00;7.57;;;;;;;;;;4845687;29;20053;-87
2022/03/09 07:20:09;;;;;;;11.95;7.88;;;;;;;;;;4846263;29;20057;-86
2022/03/09 07:22:53;;;;;;;12.93;8.73;;;;;;;;;;4845797;29;20054;-85
2022/03/09 07:26:11;;;;;;;8.40;6.65;;;;;;;;;;4846937;29;20064;-85
2022/03/09 07:28:39;;;;;;;13.60;8.95;;;;;;;;;;4846875;29;20527;-85
2022/03/09 07:31:07;;;;;;;9.70;7.20;;;;;;;;;;4845011;29;20783;-85
2022/03/09 07:33:35;;;;;;;32.38;9.02;;;;;;;;;;4835410;29;20041;-85
2022/03/09 07:36:04;;;;;;;9.15;5.47;;;;;;;;;;4828035;29;20140;-85
2022/03/09 07:38:33;;;;;;;7.72;5.75;;;;;;;;;;4827473;29;20042;-85
2022/03/09 07:41:01;;;;;;;6.05;4.20;;;;;;;;;;4828209;29;20038;-85
2022/03/09 07:43:29;;;;;;;7.50;6.35;;;;;;;;;;4828263;29;20061;-84
2022/03/09 07:46:01;;;;;;;13.45;7.55;;;;;;;;;;4814099;29;20042;-84
2022/03/09 07:48:31;;;;;;;6.75;6.07;;;;;;;;;;4813366;29;20052;-85
2022/03/09 07:51:02;;;;;;;14.93;7.50;;;;;;;;;;4812252;29;20058;-85
2022/03/09 07:53:30;;;;;;;8.07;6.22;;;;;;;;;;4845801;29;20051;-84
2022/03/09 07:55:58;;;;;;;9.20;5.70;;;;;;;;;;4814747;29;20058;-84
2022/03/09 07:58:26;;;;;;;8.23;7.00;;;;;;;;;;4843628;29;20065;-84
2022/03/09 08:00:54;;;;;;;10.95;6.10;;;;;;;;;;4814729;29;20448;-84
2022/03/09 08:03:23;;;;;;;7.75;6.32;;;;;;;;;;4828568;29;20054;-85
2022/03/09 08:05:57;;;;;;;9.18;5.97;;;;;;;;;;4827070;29;20065;-85
2022/03/09 08:08:29;;;;;;;8.75;7.57;;;;;;;;;;4827427;29;20061;-84
2022/03/09 08:10:57;;;;;;;13.45;8.27;;;;;;;;;;4827820;29;20073;-84
2022/03/09 08:13:25;;;;;;;7.15;4.47;;;;;;;;;;4820697;29;20050;-84
2022/03/09 08:15:53;;;;;;;8.95;4.97;;;;;;;;;;4838684;29;20420;-85
2022/03/09 08:18:21;;;;;;;9.57;5.78;;;;;;;;;;4824419;29;20053;-85
2022/03/09 08:20:49;;;;;;;9.02;5.72;;;;;;;;;;4823270;29;20056;-85
2022/03/09 08:23:17;;;;;;;8.60;6.88;;;;;;;;;;4839973;29;20501;-85
2022/03/09 08:25:46;;;;;;;13.68;11.10;;;;;;;;;;4823855;29;20050;-85
2022/03/09 08:28:14;;;;;;;9.55;7.63;;;;;;;;;;4838263;29;20053;-85
2022/03/09 08:30:42;;;;;;;16.58;6.38;;;;;;;;;;4839936;29;20058;-84
2022/03/09 08:33:10;;;;;;;6.45;5.85;;;;;;;;;;4822921;29;20057;-85
2022/03/09 08:35:38;;;;;;;9.25;7.70;;;;;;;;;;4808566;29;20500;-84
2022/03/09 08:38:07;;;;;;;9.30;7.38;;;;;;;;;;4822849;29;20057;-84
2022/03/09 08:40:35;;;;;;;10.27;7.28;;;;;;;;;;4822176;29;20427;-84
2022/03/09 08:43:03;;;;;;;10.43;7.22;;;;;;;;;;4839549;29;20053;-85
2022/03/09 08:45:31;;;;;;;11.27;8.25;;;;;;;;;;4822467;29;20057;-85
2022/03/09 08:47:59;;;;;;;9.48;5.90;;;;;;;;;;4851923;29;20056;-85
2022/03/09 08:50:27;;;;;;;19.25;12.32;;;;;;;;;;4843744;29;20412;-85
2022/03/09 08:53:01;;;;;;;6.63;5.80;;;;;;;;;;4823038;29;20409;-85
2022/03/09 08:55:30;;;;;;;10.95;9.65;;;;;;;;;;4839045;29;20519;-85
2022/03/09 08:57:58;;;;;;;9.65;6.85;;;;;;;;;;4851679;29;20570;-85
2022/03/09 09:00:26;;;;;;;12.07;6.30;;;;;;;;;;4857294;29;20061;-85
2022/03/09 09:02:55;;;;;;;10.10;7.28;;;;;;;;;;4857900;29;20511;-85
2022/03/09 09:05:26;;;;;;;13.55;8.20;;;;;;;;;;4840798;29;20050;-85
2022/03/09 09:07:54;;;;;;;10.45;7.10;;;;;;;;;;4838852;29;20060;-85
2022/03/09 09:10:29;;;;;;;10.82;8.45;;;;;;;;;;4839144;29;20064;-85
2022/03/09 09:13:00;;;;;;;9.23;7.82;;;;;;;;;;4838863;29;20515;-84
2022/03/09 09:15:29;;;;;;;16.55;9.02;;;;;;;;;;4822820;29;20065;-84
2022/03/09 09:17:58;;;;;;;14.95;7.40;;;;;;;;;;4838641;29;20054;-85
2022/03/09 09:20:46;;;;;;;7.90;7.13;;;;;;;;;;4838915;29;20832;-84
2022/03/09 09:23:14;;;;;;;14.93;9.27;;;;;;;;;;4839175;29;20061;-83
2022/03/09 09:26:02;;;;;;;8.32;5.85;;;;;;;;;;4837263;29;20046;-83
2022/03/09 09:28:31;;;;;;;9.18;7.40;;;;;;;;;;4856870;29;20060;-83
2022/03/09 09:30:59;;;;;;;8.50;6.70;;;;;;;;;;4857495;29;20049;-83
2022/03/09 09:33:27;;;;;;;5.65;4.90;;;;;;;;;;4856553;29;20046;-83
2022/03/09 09:35:55;;;;;;;8.20;5.10;;;;;;;;;;4856510;29;20084;-83
2022/03/09 09:38:23;;;;;;;11.88;9.10;;;;;;;;;;4855858;29;20049;-83
2022/03/09 09:40:53;;;;;;;6.75;5.05;;;;;;;;;;4856403;29;20049;-83
2022/03/09 09:43:22;;;;;;;9.45;6.57;;;;;;;;;;4857492;29;20487;-83
2022/03/09 09:45:51;;;;;;;9.20;6.45;;;;;;;;;;4853740;29;20076;-84
2022/03/09 09:48:19;;;;;;;10.20;6.68;;;;;;;;;;4822564;29;20096;-84
2022/03/09 09:50:47;;;;;;;9.43;6.35;;;;;;;;;;4854082;29;20488;-84
2022/03/09 09:53:17;;;;;;;7.47;5.72;;;;;;;;;;4839633;29;20041;-85
2022/03/09 09:55:45;;;;;;;11.10;7.30;;;;;;;;;;4856235;29;20050;-84
2022/03/09 09:58:15;;;;;;;7.13;5.85;;;;;;;;;;4856865;29;20054;-84
2022/03/09 10:00:44;;;;;;;4.75;4.25;;;;;;;;;;4824713;29;20058;-84
2022/03/09 10:03:13;;;;;;;11.27;5.95;;;;;;;;;;4840237;29;20057;-83
2022/03/09 10:05:41;;;;;;;12.40;9.85;;;;;;;;;;4855864;29;20057;-83
2022/03/09 10:08:14;;;;;;;8.00;6.88;;;;;;;;;;4856439;29;20053;-83
2022/03/09 10:10:55;;;;;;;11.40;8.13;;;;;;;;;;4856503;29;20049;-83
2022/03/09 10:13:30;;;;;;;7.03;6.07;;;;;;;;;;4856149;29;20078;-83
2022/03/09 10:16:15;;;;;;;9.25;7.00;;;;;;;;;;4839758;29;20046;-83
2022/03/09 10:18:48;;;;;;;8.07;5.50;;;;;;;;;;4840184;29;20493;-83
2022/03/09 10:21:18;;;;;;;10.63;5.85;;;;;;;;;;4855998;29;20049;-83
2022/03/09 10:23:51;;;;;;;8.37;5.90;;;;;;;;;;4855974;29;20068;-83
2022/03/09 10:26:19;;;;;;;7.82;6.38;;;;;;;;;;4839501;29;20298;-83
2022/03/09 10:29:01;;;;;;;6.95;5.13;;;;;;;;;;4862395;23;20061;-83
2022/03/09 10:31:33;;;;;;;7.40;6.47;;;;;;;;;;4856264;29;20057;-83
2022/03/09 10:34:12;;;;;;;9.15;4.65;;;;;;;;;;4841211;29;20052;-83
2022/03/09 10:36:54;;;;;;;23.90;12.50;;;;;;;;;;4841552;29;20045;-83
2022/03/09 10:39:23;;;;;;;13.27;6.70;;;;;;;;;;4858746;29;20758;-83
2022/03/09 10:41:52;;;;;;;9.45;7.75;;;;;;;;;;4841425;29;20428;-83
2022/03/09 10:44:41;;;;;;;9.60;6.45;;;;;;;;;;4857598;29;20056;-83
2022/03/09 10:47:09;;;;;;;6.95;5.82;;;;;;;;;;4842178;29;20049;-82
2022/03/09 10:49:37;;;;;;;12.23;5.70;;;;;;;;;;4818972;29;20420;-83
2022/03/09 10:52:09;;;;;;;6.22;4.97;;;;;;;;;;4807890;29;20831;-83
2022/03/09 10:54:40;;;;;;;7.07;5.85;;;;;;;;;;4821501;29;20050;-83
2022/03/09 10:57:11;;;;;;;14.82;9.25;;;;;;;;;;4823962;29;20068;-82
2022/03/09 10:59:59;;;;;;;7.03;6.03;;;;;;;;;;4833190;29;20072;-83
2022/03/09 11:02:29;;;;;;;7.50;5.63;;;;;;;;;;4823757;29;20076;-82
2022/03/09 11:05:07;;;;;;;10.73;6.03;;;;;;;;;;4854446;29;20061;-82
2022/03/09 11:07:36;;;;;;;10.57;5.45;;;;;;;;;;4828852;29;20412;-83
2022/03/09 11:10:05;;;;;;;9.70;6.72;;;;;;;;;;4820187;29;20046;-83
2022/03/09 11:12:33;;;;;;;11.27;6.70;;;;;;;;;;4836825;29;20070;-83
2022/03/09 11:15:06;;;;;;;7.68;4.53;;;;;;;;;;4837963;29;20057;-82
2022/03/09 11:17:35;;;;;;;8.63;5.40;;;;;;;;;;4855034;29;20057;-82
2022/03/09 11:20:03;;;;;;;9.20;6.32;;;;;;;;;;4854907;29;20491;-82
2022/03/09 11:22:31;;;;;;;9.40;6.47;;;;;;;;;;4855598;29;20050;-82
2022/03/09 11:24:59;;;;;;;11.98;7.78;;;;;;;;;;4854747;29;20053;-83
2022/03/09 11:27:27;;;;;;;7.38;5.10;;;;;;;;;;4830498;29;20054;-83
2022/03/09 11:29:57;;;;;;;8.32;6.47;;;;;;;;;;4835920;29;20061;-82
2022/03/09 11:32:35;;;;;;;10.52;6.72;;;;;;;;;;4836526;29;20050;-83
2022/03/09 11:35:06;;;;;;;10.02;6.93;;;;;;;;;;4836792;29;20046;-82
2022/03/09 11:37:39;;;;;;;5.35;4.25;;;;;;;;;;4836348;29;20058;-82
2022/03/09 11:40:07;;;;;;;6.22;4.57;;;;;;;;;;4809514;29;20489;-82
2022/03/09 11:42:44;;;;;;;13.50;4.38;;;;;;;;;;4835802;29;20054;-82
2022/03/09 11:45:16;;;;;;;6.32;4.53;;;;;;;;;;4834987;29;20057;-83
2022/03/09 11:48:00;;;;;;;14.23;5.40;;;;;;;;;;4853471;29;20057;-82
2022/03/09 11:50:30;;;;;;;10.13;3.90;;;;;;;;;;4840938;29;20050;-83
2022/03/09 11:53:08;;;;;;;6.13;4.03;;;;;;;;;;4836161;29;20508;-82
2022/03/09 11:55:39;;;;;;;4.10;3.70;;;;;;;;;;4839078;29;20050;-83
2022/03/09 11:58:14;;;;;;;5.82;4.03;;;;;;;;;;4827731;29;20504;-82
2022/03/09 12:01:03;;;;;;;4.32;3.88;;;;;;;;;;4844567;29;20050;-83
2022/03/09 12:03:42;;;;;;;10.10;5.68;;;;;;;;;;4826929;29;20061;-83
2022/03/09 12:06:29;;;;;;;7.05;3.60;;;;;;;;;;4840508;29;20503;-83
2022/03/09 12:08:57;;;;;;;7.47;5.78;;;;;;;;;;4841622;29;20037;-84
2022/03/09 12:11:26;;;;;;;4.43;3.97;;;;;;;;;;4841946;29;20057;-82
2022/03/09 12:13:54;;;;;;;5.28;3.90;;;;;;;;;;4857773;29;20045;-83
2022/03/09 12:16:24;;;;;;;4.63;3.63;;;;;;;;;;4841279;29;20064;-83
2022/03/09 12:19:06;;;;;;;3.75;3.45;;;;;;;;;;4858442;29;20050;-83
2022/03/09 12:21:40;;;;;;;6.47;4.60;;;;;;;;;;4826032;29;20046;-83
2022/03/09 12:24:14;;;;;;;6.30;3.60;;;;;;;;;;4825680;29;20053;-83
2022/03/09 12:26:51;;;;;;;6.03;5.43;;;;;;;;;;4841465;29;20503;-83
2022/03/09 12:29:28;;;;;;;4.28;3.88;;;;;;;;;;4841179;29;20391;-83
2022/03/09 12:31:58;;;;;;;6.25;4.65;;;;;;;;;;4825931;29;20068;-87
2022/03/09 12:34:27;;;;;;;5.45;4.18;;;;;;;;;;4855136;29;20717;-83
2022/03/09 12:36:55;;;;;;;4.78;4.00;;;;;;;;;;4822448;29;20046;-81
2022/03/09 12:39:23;;;;;;;27.77;5.70;;;;;;;;;;4839813;29;20046;-89
2022/03/09 12:41:54;;;;;;;7.07;5.72;;;;;;;;;;4839863;29;20919;-85
2022/03/09 12:44:23;;;;;;;6.20;4.70;;;;;;;;;;4804485;29;20055;-85
2022/03/09 12:47:01;;;;;;;5.45;4.57;;;;;;;;;;4829468;29;20424;-86
2022/03/09 12:49:29;;;;;;;9.88;4.63;;;;;;;;;;4821971;29;20045;-87
2022/03/09 12:52:01;;;;;;;6.03;4.28;;;;;;;;;;4807383;29;20083;-89
2022/03/09 12:54:32;;;;;;;5.78;3.72;;;;;;;;;;4822773;29;20049;-84
2022/03/09 12:57:11;;;;;;;5.75;3.42;;;;;;;;;;4828402;29;20057;-86
2022/03/09 12:59:40;;;;;;;3.65;3.33;;;;;;;;;;4832025;29;20058;-85
2022/03/09 13:02:08;;;;;;;6.07;4.10;;;;;;;;;;4838836;29;20558;-85
2022/03/09 13:04:37;;;;;;;3.17;2.95;;;;;;;;;;4822522;29;20061;-87
2022/03/09 13:07:10;;;;;;;6.15;4.43;;;;;;;;;;4821790;29;20503;-85
2022/03/09 13:09:43;;;;;;;7.28;3.83;;;;;;;;;;4823410;29;20050;-89
2022/03/09 13:12:15;;;;;;;7.18;5.47;;;;;;;;;;4857581;29;20420;-84
2022/03/09 13:14:52;;;;;;;4.47;3.42;;;;;;;;;;4832332;29;20049;-81
2022/03/09 13:17:21;;;;;;;4.75;4.30;;;;;;;;;;4830971;29;20701;-81
2022/03/09 13:19:50;;;;;;;5.20;4.72;;;;;;;;;;4854430;29;20053;-82
2022/03/09 13:22:24;;;;;;;4.35;3.95;;;;;;;;;;4841052;29;20057;-82
2022/03/09 13:25:04;;;;;;;6.00;4.05;;;;;;;;;;4840841;29;20120;-83
2022/03/09 13:27:32;;;;;;;5.50;4.20;;;;;;;;;;4825399;29;20053;-83
2022/03/09 13:30:10;;;;;;;3.97;2.70;;;;;;;;;;4829643;29;20495;-83
2022/03/09 13:32:39;;;;;;;3.72;2.65;;;;;;;;;;4827355;29;20818;-83
2022/03/09 13:35:09;;;;;;;13.02;4.75;;;;;;;;;;4848778;29;20050;-82
2022/03/09 13:37:39;;;;;;;2.72;2.28;;;;;;;;;;4841846;29;20053;-82
2022/03/09 13:40:13;;;;;;;6.13;4.97;;;;;;;;;;4836004;29;20369;-85
2022/03/09 13:42:45;;;;;;;7.38;4.78;;;;;;;;;;4820781;29;20057;-86
2022/03/09 13:45:20;;;;;;;3.67;2.78;;;;;;;;;;4847592;29;20515;-84
2022/03/09 13:48:04;;;;;;;3.78;2.10;;;;;;;;;;4859580;29;20050;-84
2022/03/09 13:50:35;;;;;;;6.07;4.05;;;;;;;;;;4833954;29;20046;-85
2022/03/09 13:53:06;;;;;;;14.88;2.92;;;;;;;;;;4833419;29;20046;-82
2022/03/09 13:55:53;;;;;;;2.38;1.95;;;;;;;;;;4844513;29;20050;-85
2022/03/09 13:58:26;;;;;;;5.25;2.83;;;;;;;;;;4831592;29;20416;-82
2022/03/09 14:01:05;;;;;;;2.00;1.77;;;;;;;;;;4856519;29;20045;-82
2022/03/09 14:03:41;;;;;;;3.70;3.13;;;;;;;;;;4857028;29;20064;-82
2022/03/09 14:06:13;;;;;;;3.92;2.53;;;;;;;;;;4839372;29;20066;-83
2022/03/09 14:08:42;;;;;;;1.85;1.70;;;;;;;;;;4839342;29;20053;-85
2022/03/09 14:11:13;;;;;;;2.08;1.80;;;;;;;;;;4858724;29;20412;-85
2022/03/09 14:13:57;;;;;;;3.35;2.20;;;;;;;;;;4857513;29;20054;-85
2022/03/09 14:16:28;;;;;;;4.30;2.38;;;;;;;;;;4855441;29;20128;-85
2022/03/09 14:18:57;;;;;;;2.22;2.03;;;;;;;;;;4847593;29;20066;-84
2022/03/09 14:21:25;;;;;;;3.60;2.63;;;;;;;;;;4840495;29;20061;-83
2022/03/09 14:24:01;;;;;;;2.22;1.58;;;;;;;;;;4846505;29;20057;-82
2022/03/09 14:26:33;;;;;;;5.03;3.35;;;;;;;;;;4861276;29;20689;-82
2022/03/09 14:29:01;;;;;;;2.38;2.17;;;;;;;;;;4861954;29;20076;-81
2022/03/09 14:31:29;;;;;;;3.72;2.33;;;;;;;;;;4875444;29;20073;-83
2022/03/09 14:33:57;;;;;;;4.07;3.20;;;;;;;;;;4875194;29;20072;-84
2022/03/09 14:36:26;;;;;;;3.65;2.72;;;;;;;;;;4857764;29;20537;-83
2022/03/09 14:38:54;;;;;;;4.40;3.45;;;;;;;;;;4874551;29;20049;-83
2022/03/09 14:41:23;;;;;;;2.72;1.95;;;;;;;;;;4857395;29;20069;-83
2022/03/09 14:43:51;;;;;;;2.42;2.22;;;;;;;;;;4850288;29;20065;-84
2022/03/09 14:46:20;;;;;;;2.05;1.83;;;;;;;;;;4814457;29;20057;-84
2022/03/09 14:48:54;;;;;;;3.60;2.70;;;;;;;;;;4854442;29;20053;-84
2022/03/09 14:51:22;;;;;;;6.97;2.80;;;;;;;;;;4839667;29;20068;-84
2022/03/09 14:53:51;;;;;;;2.13;1.92;;;;;;;;;;4856593;29;20081;-83
2022/03/09 14:56:19;;;;;;;2.15;1.85;;;;;;;;;;4839467;29;20072;-87
2022/03/09 14:58:50;;;;;;;3.30;2.58;;;;;;;;;;4837985;29;20058;-86
2022/03/09 15:01:19;;;;;;;2.35;2.25;;;;;;;;;;4837271;29;20049;-83
2022/03/09 15:03:50;;;;;;;1.42;1.33;;;;;;;;;;4837684;29;20591;-84
2022/03/09 15:06:24;;;;;;;3.15;1.83;;;;;;;;;;4837998;29;20061;-83